メインページ
METAR-TAF:

METAR-TAF

空港 :

プルコヴォ空港

サンクトペテルブルク, ロシア

緯度: 59-58N, 経度: 030-18E, 海抜: 4m

現時点の気象観測

当レポートは35分前の06:30(UTC)に作成
東/北東の風 8kt
気温 0°C
湿度 80%
気圧 1030 hPa
視程10km以上
高度1100ftの千切れ雲あり
高度2700ftの曇り

METAR: ULLI 130630Z 06004MPS 9999 BKN011 OVC027 M00/M03 Q1030 R88/290050 NOSIG

時間: 10:05 (07:05 UTC)

予報

当レポートは2時間6分前の04:59(UTC)に作成
予報は13日の 06時(UTC)から 14日の 06時(UTC)まで有効
東/北東の風 8kt、最大17ktの突風を伴う
視程10km以上
高度1100ftの千切れ雲あり
13日の 06時(UTC)から 13日の 12時(UTC)まで一時的に
視程: 4000m
高度1000ftの千切れ雲あり
高度2000ftの千切れ雲あり, 積乱雲.
弱いにわか雪, 靄
13日の 16時(UTC)から 13日の 18時(UTC)まで徐々に
の風 6kt
13日の 20時(UTC)から 14日の 06時(UTC)まで一時的に
視程: 3100m
高度500ftの雲はほとんどない

TAF: ULLI 130459Z 1306/1406 06004G09MPS 9999 BKN011 TEMPO 1306/1312 4000 -SHSN BR BKN010 BKN020CB BECMG 1316/1318 08003MPS TEMPO 1320/1406 3100 BR FEW005

4,000以上の空港の気象観測と天気予報(METAR報とTAF報)

利用可能な観測所は地図上に黄色い丸と赤い丸で示す。

丸の上にカーソルを重ねると観測所名を参照できる。

次にクリックすると気象観測と天気予報を参照できる。

マップの切り替え:黒色「×」印の緑ボタンをクリックして拡大、「-」印の緑ボタンをクリックして縮小、緑色の三角印をクリックして隣りの地図に切り替え


METAR-TAF: